createdAt,value
2018-12-03T00:00:30.423Z,2.60
2018-12-03T00:05:15.621Z,2.60
2018-12-03T00:10:00.770Z,2.37
2018-12-03T00:14:46.063Z,2.00
2018-12-03T00:19:31.484Z,3.13
2018-12-03T00:24:16.910Z,2.40
2018-12-03T00:29:02.243Z,4.47
2018-12-03T00:33:47.504Z,3.50
2018-12-03T00:38:32.717Z,2.83
2018-12-03T00:43:17.977Z,2.07
2018-12-03T00:48:03.345Z,3.87
2018-12-03T00:52:48.689Z,3.33
2018-12-03T00:57:34.048Z,2.70
2018-12-03T01:02:25.397Z,2.10
2018-12-03T01:07:10.981Z,3.73
2018-12-03T01:11:55.967Z,2.73
2018-12-03T01:16:41.231Z,2.37
2018-12-03T01:21:26.767Z,3.60
2018-12-03T01:26:11.995Z,4.60
2018-12-03T01:30:57.325Z,4.03
2018-12-03T01:35:42.529Z,3.77
2018-12-03T01:40:27.908Z,3.03
2018-12-03T01:45:13.651Z,2.30
2018-12-03T01:49:59.004Z,2.37
2018-12-03T01:54:44.222Z,2.80
2018-12-03T01:59:29.547Z,3.17
2018-12-03T02:04:14.828Z,3.77
2018-12-03T02:09:00.251Z,2.07
2018-12-03T02:13:45.576Z,3.10
2018-12-03T02:18:31.779Z,1.10
2018-12-03T02:23:17.071Z,1.17
2018-12-03T02:28:02.455Z,1.57
2018-12-03T02:32:47.355Z,2.30
2018-12-03T02:37:32.644Z,1.80
2018-12-03T02:42:17.900Z,2.10
2018-12-03T02:47:03.207Z,2.20
2018-12-03T02:51:48.442Z,1.27
2018-12-03T02:56:33.776Z,2.87
2018-12-03T03:01:19.061Z,1.57
2018-12-03T03:06:04.421Z,1.13
2018-12-03T03:10:49.216Z,2.07
2018-12-03T03:15:34.116Z,1.87
2018-12-03T03:20:19.037Z,1.27
2018-12-03T03:25:03.991Z,1.50
2018-12-03T03:29:48.816Z,1.03
2018-12-03T03:34:33.729Z,1.17
2018-12-03T03:39:18.552Z,2.43
2018-12-03T03:44:03.480Z,1.43
2018-12-03T03:48:48.307Z,1.40
2018-12-03T03:53:33.138Z,2.07
2018-12-03T03:58:18.133Z,1.20
2018-12-03T04:03:03.648Z,1.90
2018-12-03T04:07:48.485Z,1.83
2018-12-03T04:12:33.375Z,4.47
2018-12-03T04:17:18.219Z,4.87
2018-12-03T04:22:03.110Z,1.87
2018-12-03T04:26:47.958Z,2.20
2018-12-03T04:31:32.849Z,3.07
2018-12-03T04:36:17.638Z,3.17
2018-12-03T04:41:02.465Z,2.47
2018-12-03T04:45:47.245Z,2.03
2018-12-03T04:50:32.174Z,2.43
2018-12-03T04:55:18.928Z,2.23
2018-12-03T05:00:03.922Z,3.53
2018-12-03T05:04:48.777Z,2.47
2018-12-03T05:09:33.637Z,1.77
2018-12-03T05:14:18.468Z,1.00
2018-12-03T05:19:03.509Z,2.93
2018-12-03T05:23:48.318Z,0.60
2018-12-03T05:28:33.232Z,3.00
2018-12-03T05:33:18.131Z,2.83
2018-12-03T05:38:02.908Z,1.03
2018-12-03T05:42:47.984Z,1.50
2018-12-03T05:47:32.834Z,2.67
2018-12-03T05:52:17.694Z,3.00
2018-12-03T05:57:02.616Z,3.67
2018-12-03T06:01:47.422Z,4.93
2018-12-03T06:06:32.238Z,3.83
2018-12-03T06:11:17.351Z,4.10
2018-12-03T06:16:02.941Z,2.60
2018-12-03T06:20:48.006Z,4.17
2018-12-03T06:25:32.986Z,1.87
2018-12-03T06:30:19.274Z,3.00
2018-12-03T06:35:03.992Z,2.60
2018-12-03T06:39:48.842Z,5.17
2018-12-03T06:44:33.646Z,3.17
2018-12-03T06:49:18.548Z,2.83
2018-12-03T06:54:03.383Z,2.53
2018-12-03T06:58:48.250Z,2.40
2018-12-03T07:03:33.074Z,1.53
2018-12-03T07:08:18.204Z,0.90
2018-12-03T07:13:05.350Z,1.20
2018-12-03T07:17:51.192Z,1.70
2018-12-03T07:22:35.969Z,1.33
2018-12-03T07:27:20.797Z,2.07
2018-12-03T07:32:05.712Z,1.10
2018-12-03T07:36:50.623Z,3.07
2018-12-03T07:41:35.366Z,1.40
2018-12-03T07:46:20.218Z,1.40
2018-12-03T07:51:05.298Z,4.63
2018-12-03T07:55:50.043Z,1.73
2018-12-03T08:00:41.607Z,2.30
2018-12-03T08:05:26.384Z,2.10
2018-12-03T08:10:13.665Z,2.73
2018-12-03T08:14:58.499Z,3.53
2018-12-03T08:19:43.201Z,5.47
2018-12-03T08:24:28.027Z,3.13
2018-12-03T08:29:12.760Z,2.40
2018-12-03T08:33:57.637Z,1.70
2018-12-03T08:38:42.796Z,2.17
2018-12-03T08:43:27.591Z,1.93
2018-12-03T08:48:12.456Z,3.30
2018-12-03T08:52:58.144Z,1.73
2018-12-03T08:57:43.007Z,1.20
2018-12-03T09:02:27.863Z,1.13
2018-12-03T09:07:12.701Z,1.93
2018-12-03T09:11:57.553Z,1.40
2018-12-03T09:16:42.408Z,1.50
2018-12-03T09:21:27.386Z,1.53
2018-12-03T09:26:12.664Z,3.60
2018-12-03T09:30:57.945Z,1.30
2018-12-03T09:35:42.416Z,1.67
2018-12-03T09:40:28.957Z,1.07
2018-12-03T09:45:16.443Z,4.27
2018-12-03T09:50:01.363Z,2.70
2018-12-03T09:54:46.161Z,2.60
2018-12-03T09:59:31.082Z,4.20
2018-12-03T10:04:18.484Z,4.13
2018-12-03T10:09:03.580Z,1.97
2018-12-03T10:13:48.447Z,1.50
2018-12-03T10:18:33.356Z,1.93
2018-12-03T10:23:18.204Z,1.87
2018-12-03T10:28:06.005Z,1.53
2018-12-03T10:32:52.424Z,1.33
2018-12-03T10:37:37.253Z,2.43
2018-12-03T10:42:22.145Z,1.47
2018-12-03T10:47:07.583Z,2.40
2018-12-03T10:51:52.430Z,1.80
2018-12-03T10:56:37.491Z,2.63
2018-12-03T11:01:24.214Z,1.80
2018-12-03T11:06:14.312Z,1.13
2018-12-03T11:10:59.251Z,3.80
2018-12-03T11:15:44.218Z,2.33
2018-12-03T11:20:29.238Z,3.60
2018-12-03T11:25:16.703Z,1.80
2018-12-03T11:30:01.622Z,3.63
2018-12-03T11:34:46.494Z,2.90
2018-12-03T11:39:44.410Z,2.07
2018-12-03T11:44:29.221Z,3.37
2018-12-03T11:49:14.092Z,3.13
2018-12-03T11:53:58.920Z,4.60
2018-12-03T11:58:43.805Z,3.63
2018-12-03T12:03:28.611Z,1.90
2018-12-03T12:08:13.467Z,2.63
2018-12-03T12:12:58.449Z,1.30
2018-12-03T12:17:43.358Z,2.17
2018-12-03T12:22:28.301Z,2.23
2018-12-03T12:27:13.221Z,1.03
2018-12-03T12:31:58.388Z,1.90
2018-12-03T12:36:43.271Z,2.03
2018-12-03T12:41:28.530Z,3.67
2018-12-03T12:46:17.027Z,2.03
2018-12-03T12:51:02.106Z,1.90
2018-12-03T12:55:46.936Z,1.23
2018-12-03T13:00:32.006Z,1.70
2018-12-03T13:05:17.055Z,3.30
2018-12-03T13:10:02.068Z,1.83
2018-12-03T13:14:46.988Z,3.80
2018-12-03T13:19:31.909Z,5.13
2018-12-03T13:24:16.809Z,2.67
2018-12-03T13:29:01.676Z,0.60
2018-12-03T13:33:46.740Z,1.80
2018-12-03T13:38:31.638Z,2.77
2018-12-03T13:43:16.493Z,3.03
2018-12-03T13:48:01.522Z,1.83
2018-12-03T13:52:46.634Z,1.90
2018-12-03T13:57:31.479Z,1.50
2018-12-03T14:02:16.390Z,4.03
2018-12-03T14:07:11.692Z,1.93
2018-12-03T14:12:08.706Z,3.10
2018-12-03T14:19:11.489Z,4.87
2018-12-03T14:23:58.043Z,2.93
2018-12-03T14:28:43.538Z,2.87
2018-12-03T14:33:28.067Z,3.20
2018-12-03T14:38:13.019Z,4.53
2018-12-03T14:42:58.024Z,5.57
2018-12-03T14:47:42.939Z,6.60
2018-12-03T14:52:27.782Z,2.97
2018-12-03T14:57:12.745Z,3.60
2018-12-03T15:01:57.692Z,5.20
2018-12-03T15:06:43.403Z,4.60
2018-12-03T15:11:28.333Z,7.83
2018-12-03T15:16:13.107Z,3.87
2018-12-03T15:20:58.641Z,3.83
2018-12-03T15:25:43.797Z,2.50
2018-12-03T15:30:28.876Z,3.60
2018-12-03T15:35:13.797Z,2.70
2018-12-03T15:39:58.854Z,5.00
2018-12-03T15:44:44.014Z,4.00
2018-12-03T15:49:28.979Z,1.07
2018-12-03T15:54:13.910Z,0.50
2018-12-03T15:58:58.844Z,2.30
2018-12-03T16:03:43.886Z,2.03
2018-12-03T16:08:28.802Z,4.00
2018-12-03T16:13:13.696Z,3.00
2018-12-03T16:17:58.588Z,6.03
2018-12-03T16:22:43.643Z,4.07
2018-12-03T16:27:28.620Z,2.10
2018-12-03T16:32:13.536Z,3.23
2018-12-03T16:36:58.821Z,2.60
2018-12-03T16:41:43.865Z,2.63
2018-12-03T16:46:28.882Z,6.40
2018-12-03T16:51:14.204Z,4.17
2018-12-03T16:55:59.497Z,8.03
2018-12-03T17:00:44.397Z,3.60
2018-12-03T17:05:29.288Z,2.33
2018-12-03T17:10:17.968Z,2.03
2018-12-03T17:15:02.933Z,3.10
2018-12-03T17:19:47.756Z,5.33
2018-12-03T17:24:35.663Z,4.77
2018-12-03T17:29:20.680Z,4.93
2018-12-03T17:34:05.629Z,5.17
2018-12-03T17:38:50.589Z,4.10
2018-12-03T17:43:35.479Z,6.57
2018-12-03T17:48:20.471Z,4.13
2018-12-03T17:53:05.359Z,5.67
2018-12-03T17:57:50.445Z,4.20
2018-12-03T18:02:35.460Z,4.60
2018-12-03T18:07:20.320Z,4.27
2018-12-03T18:12:05.364Z,4.87
2018-12-03T18:16:50.304Z,7.27
2018-12-03T18:21:35.350Z,5.27
2018-12-03T18:26:20.273Z,6.10
2018-12-03T18:31:05.227Z,5.27
2018-12-03T18:35:50.141Z,5.47
2018-12-03T18:40:35.004Z,5.57
2018-12-03T18:45:20.008Z,4.07
2018-12-03T18:50:10.148Z,6.00
2018-12-03T18:54:55.298Z,3.97
2018-12-03T18:59:40.485Z,3.40
2018-12-03T19:04:25.393Z,5.00
2018-12-03T19:09:10.683Z,5.97
2018-12-03T19:13:56.633Z,6.20
2018-12-03T19:18:41.617Z,5.93
2018-12-03T19:23:26.971Z,6.77
2018-12-03T19:28:12.153Z,5.67
2018-12-03T19:32:57.295Z,5.03
2018-12-03T19:37:42.354Z,5.20
2018-12-03T19:42:27.397Z,4.63
2018-12-03T19:47:12.472Z,0.30
2018-12-03T19:51:58.624Z,4.00
2018-12-03T19:56:43.508Z,2.27
2018-12-03T20:01:28.601Z,2.30
2018-12-03T20:06:13.757Z,1.10
2018-12-03T20:10:58.716Z,0.80
2018-12-03T20:15:43.839Z,0.67
2018-12-03T20:21:31.378Z,1.00
2018-12-03T20:26:28.958Z,1.63
2018-12-03T20:32:01.014Z,0.10
2018-12-03T20:37:28.245Z,0.13
2018-12-03T20:42:13.383Z,0.10
2018-12-03T20:47:08.814Z,0.10
2018-12-03T20:51:59.906Z,0.30
2018-12-03T20:56:45.913Z,0.10
2018-12-03T21:01:31.600Z,0.10
2018-12-03T21:06:16.781Z,0.30
2018-12-03T21:11:02.860Z,0.60
2018-12-03T21:15:48.302Z,0.00
2018-12-03T21:20:42.676Z,0.10
2018-12-03T21:25:28.061Z,0.40
2018-12-03T21:30:13.247Z,0.97
2018-12-03T21:34:58.499Z,0.50
2018-12-03T21:39:48.038Z,0.40
2018-12-03T21:44:30.560Z,1.20
2018-12-03T21:49:15.549Z,1.00
2018-12-03T21:54:01.574Z,0.67
2018-12-03T21:58:46.568Z,1.50
2018-12-03T22:03:31.629Z,0.60
2018-12-03T22:08:16.658Z,1.57
2018-12-03T22:13:02.338Z,1.13
2018-12-03T22:17:47.137Z,0.30
2018-12-03T22:22:32.037Z,1.27
2018-12-03T22:27:18.149Z,1.13
2018-12-03T22:32:03.164Z,0.30
2018-12-03T22:36:48.048Z,1.13
2018-12-03T22:41:32.906Z,0.57
2018-12-03T22:46:17.701Z,0.63
2018-12-03T22:51:02.534Z,1.03
2018-12-03T22:55:47.634Z,2.37
2018-12-03T23:00:38.231Z,0.40
2018-12-03T23:05:23.124Z,0.90
2018-12-03T23:10:08.052Z,0.67
2018-12-03T23:14:52.854Z,1.70
2018-12-03T23:19:37.690Z,0.33
2018-12-03T23:24:22.435Z,1.90
2018-12-03T23:29:07.303Z,1.20
2018-12-03T23:33:52.067Z,0.60
2018-12-03T23:38:36.865Z,0.47
2018-12-03T23:43:21.593Z,0.60
2018-12-03T23:48:06.392Z,0.30
2018-12-03T23:52:51.153Z,3.40
2018-12-03T23:57:35.956Z,0.50
